createdAt,value
2022-10-18T00:04:45.026Z,12.81
2022-10-18T00:10:07.406Z,12.79
2022-10-18T00:15:29.151Z,12.78
2022-10-18T00:20:59.138Z,12.81
2022-10-18T00:26:25.518Z,12.90
2022-10-18T00:31:47.146Z,12.98
2022-10-18T00:37:09.211Z,13.00
2022-10-18T00:42:35.322Z,13.02
2022-10-18T00:48:02.774Z,13.07
2022-10-18T00:53:24.432Z,13.16
2022-10-18T00:58:47.330Z,13.25
2022-10-18T01:04:09.210Z,13.28
2022-10-18T01:09:44.848Z,13.27
2022-10-18T01:15:28.345Z,13.24
2022-10-18T01:21:09.841Z,13.19
2022-10-18T01:27:14.118Z,13.11
2022-10-18T01:32:40.272Z,13.03
2022-10-18T01:38:06.519Z,13.07
2022-10-18T01:43:29.267Z,13.13
2022-10-18T01:48:52.475Z,13.13
2022-10-18T01:54:18.316Z,13.14
2022-10-18T01:59:59.125Z,13.07
2022-10-18T02:05:38.801Z,12.95
2022-10-18T02:11:04.086Z,12.86
2022-10-18T02:16:29.999Z,12.72
2022-10-18T02:21:54.110Z,12.68
2022-10-18T02:27:15.987Z,12.71
2022-10-18T02:33:04.576Z,12.73
2022-10-18T02:38:27.207Z,12.67
2022-10-18T02:43:51.099Z,12.61
2022-10-18T02:49:12.470Z,12.55
2022-10-18T02:54:34.049Z,12.49
2022-10-18T02:59:55.865Z,12.52
2022-10-18T03:05:17.559Z,12.57
2022-10-18T03:10:39.291Z,12.70
2022-10-18T03:16:00.813Z,12.78
2022-10-18T03:21:22.846Z,12.79
2022-10-18T03:26:44.273Z,12.70
2022-10-18T03:32:06.514Z,12.52
2022-10-18T03:37:28.223Z,12.33
2022-10-18T03:42:50.259Z,12.30
2022-10-18T03:48:11.966Z,12.37
2022-10-18T03:53:33.542Z,12.48
2022-10-18T03:58:55.044Z,12.46
2022-10-18T04:04:17.139Z,12.24
2022-10-18T04:09:39.104Z,12.02
2022-10-18T04:15:01.035Z,11.88
2022-10-18T04:20:23.768Z,11.84
2022-10-18T04:25:45.712Z,11.75
2022-10-18T04:31:07.422Z,11.71
2022-10-18T04:36:29.251Z,11.80
2022-10-18T04:41:50.942Z,11.92
2022-10-18T04:47:12.368Z,12.04
2022-10-18T04:52:33.869Z,12.12
2022-10-18T04:57:55.550Z,12.18
2022-10-18T05:03:17.959Z,12.19
2022-10-18T05:08:40.125Z,12.22
2022-10-18T05:14:01.855Z,12.32
2022-10-18T05:19:24.260Z,12.26
2022-10-18T05:24:46.716Z,11.91
2022-10-18T05:30:08.851Z,11.53
2022-10-18T05:35:30.698Z,11.41
2022-10-18T05:40:52.733Z,11.44
2022-10-18T05:46:15.677Z,11.52
2022-10-18T05:51:37.957Z,11.55
2022-10-18T05:56:59.797Z,11.62
2022-10-18T06:02:21.484Z,11.70
2022-10-18T06:07:43.167Z,11.74
2022-10-18T06:13:05.050Z,11.79
2022-10-18T06:18:27.090Z,11.90
2022-10-18T06:23:50.091Z,12.08
2022-10-18T06:29:11.845Z,12.37
2022-10-18T06:34:34.508Z,12.63
2022-10-18T06:39:56.136Z,12.82
2022-10-18T06:45:18.532Z,12.99
2022-10-18T06:50:40.194Z,13.13
2022-10-18T06:56:05.106Z,13.27
2022-10-18T07:01:28.636Z,13.40
2022-10-18T07:06:50.398Z,13.53
2022-10-18T07:12:12.188Z,13.69
2022-10-18T07:17:34.376Z,13.87
2022-10-18T07:22:57.276Z,14.06
2022-10-18T07:28:18.878Z,14.25
2022-10-18T07:33:40.684Z,14.42
2022-10-18T07:39:02.242Z,14.60
2022-10-18T07:44:24.235Z,14.79
2022-10-18T07:49:45.841Z,14.97
2022-10-18T07:55:07.799Z,15.13
2022-10-18T08:00:29.536Z,15.29
2022-10-18T08:05:53.615Z,15.46
2022-10-18T08:11:21.019Z,15.64
2022-10-18T08:16:42.690Z,15.85
2022-10-18T08:22:04.717Z,16.07
2022-10-18T08:27:26.424Z,16.28
2022-10-18T08:32:48.412Z,16.45
2022-10-18T08:38:16.480Z,16.62
2022-10-18T08:43:47.264Z,16.80
2022-10-18T08:49:15.958Z,17.00
2022-10-18T08:54:40.300Z,17.17
2022-10-18T09:00:16.272Z,17.34
2022-10-18T09:05:51.690Z,17.48
2022-10-18T09:11:34.908Z,17.65
2022-10-18T09:17:18.164Z,17.81
2022-10-18T09:22:53.287Z,17.93
2022-10-18T09:28:43.022Z,18.03
2022-10-18T09:34:13.235Z,18.15
2022-10-18T09:39:38.027Z,18.29
2022-10-18T09:45:03.426Z,18.45
2022-10-18T09:50:34.750Z,18.56
2022-10-18T09:56:06.297Z,18.70
2022-10-18T10:01:30.519Z,18.81
2022-10-18T10:06:54.605Z,18.94
2022-10-18T10:12:26.838Z,19.08
2022-10-18T10:17:57.336Z,19.13
2022-10-18T10:23:44.264Z,19.19
2022-10-18T10:29:47.456Z,19.25
2022-10-18T10:35:52.489Z,19.33
2022-10-18T10:41:23.483Z,19.38
2022-10-18T10:46:45.790Z,19.42
2022-10-18T10:52:36.876Z,19.50
2022-10-18T10:57:59.034Z,19.54
2022-10-18T11:03:30.147Z,19.60
2022-10-18T11:08:53.206Z,19.65
2022-10-18T11:14:27.395Z,19.72
2022-10-18T11:20:09.596Z,19.80
2022-10-18T11:26:01.459Z,19.83
2022-10-18T11:32:00.853Z,19.85
2022-10-18T11:37:38.260Z,19.93
2022-10-18T11:43:13.283Z,20.06
2022-10-18T11:49:03.440Z,20.11
2022-10-18T11:54:27.970Z,20.12
2022-10-18T12:00:08.518Z,20.13
2022-10-18T12:05:31.956Z,20.13
2022-10-18T12:11:05.153Z,20.14
2022-10-18T12:16:50.033Z,20.20
2022-10-18T12:22:21.504Z,20.27
2022-10-18T12:28:02.928Z,20.28
2022-10-18T12:33:29.656Z,20.29
2022-10-18T12:39:00.779Z,20.32
2022-10-18T12:44:30.079Z,20.30
2022-10-18T12:49:57.515Z,20.33
2022-10-18T12:55:19.588Z,20.34
2022-10-18T13:00:41.729Z,20.32
2022-10-18T13:06:06.597Z,20.28
2022-10-18T13:11:36.309Z,20.23
2022-10-18T13:17:11.043Z,20.19
2022-10-18T13:23:13.644Z,20.19
2022-10-18T13:28:50.851Z,20.16
2022-10-18T13:34:25.215Z,20.11
2022-10-18T13:39:47.784Z,20.10
2022-10-18T13:45:31.670Z,20.09
2022-10-18T13:50:57.596Z,20.02
2022-10-18T13:57:27.781Z,19.95
2022-10-18T14:09:32.909Z,19.85
2022-10-18T14:15:07.753Z,19.80
2022-10-18T14:20:49.576Z,19.78
2022-10-18T14:26:19.584Z,19.73
2022-10-18T14:31:42.052Z,19.65
2022-10-18T14:37:03.801Z,19.52
2022-10-18T14:42:27.814Z,19.39
2022-10-18T14:47:49.842Z,19.26
2022-10-18T14:53:22.157Z,19.15
2022-10-18T14:58:43.838Z,19.04
2022-10-18T15:04:10.072Z,18.91
2022-10-18T15:09:33.665Z,18.76
2022-10-18T15:14:56.172Z,18.62
2022-10-18T15:20:25.161Z,18.48
2022-10-18T15:25:47.247Z,18.34
2022-10-18T15:31:22.043Z,18.19
2022-10-18T15:42:37.630Z,17.92
2022-10-18T15:48:13.111Z,17.81
2022-10-18T15:53:37.334Z,17.69
2022-10-18T15:59:01.223Z,17.60
2022-10-18T16:04:28.808Z,17.51
2022-10-18T16:09:50.299Z,17.42
2022-10-18T16:15:12.013Z,17.34
2022-10-18T16:20:33.827Z,17.27
2022-10-18T16:25:55.627Z,17.20
2022-10-18T16:31:20.662Z,17.12
2022-10-18T16:36:42.042Z,17.10
2022-10-18T16:42:04.103Z,17.08
2022-10-18T16:47:25.799Z,17.06
2022-10-18T16:52:47.753Z,17.05
2022-10-18T16:58:17.863Z,17.01
2022-10-18T17:03:39.908Z,16.97
2022-10-18T17:09:01.850Z,16.96
2022-10-18T17:14:23.679Z,16.96
2022-10-18T17:19:45.806Z,16.94
2022-10-18T17:25:08.140Z,16.92
2022-10-18T17:30:50.842Z,16.91
2022-10-18T17:36:12.994Z,16.89
2022-10-18T17:41:34.426Z,16.87
2022-10-18T17:46:56.341Z,16.85
2022-10-18T17:52:18.453Z,16.83
2022-10-18T17:57:41.285Z,16.84
2022-10-18T18:03:03.015Z,16.91
2022-10-18T18:08:25.882Z,16.98
2022-10-18T18:13:47.856Z,17.03
2022-10-18T18:19:10.341Z,17.06
2022-10-18T18:24:32.238Z,17.06
2022-10-18T18:29:53.989Z,17.04
2022-10-18T18:35:15.768Z,17.05
2022-10-18T18:40:37.255Z,17.11
2022-10-18T18:45:59.410Z,16.98
2022-10-18T18:51:21.924Z,16.66
2022-10-18T18:56:43.688Z,16.39
2022-10-18T19:02:05.315Z,16.15
2022-10-18T19:07:27.311Z,15.90
2022-10-18T19:12:49.070Z,15.67
2022-10-18T19:18:10.811Z,15.58
2022-10-18T19:23:32.891Z,15.51
2022-10-18T19:28:55.744Z,15.34
2022-10-18T19:34:18.930Z,15.28
2022-10-18T19:39:40.324Z,15.28
2022-10-18T19:45:03.068Z,15.21
2022-10-18T19:55:57.898Z,15.16
2022-10-18T20:01:20.353Z,15.03
2022-10-18T20:06:42.700Z,14.91
2022-10-18T20:12:06.683Z,14.83
2022-10-18T20:17:28.685Z,14.79
2022-10-18T20:22:50.632Z,14.80
2022-10-18T20:28:12.104Z,14.77
2022-10-18T20:33:35.376Z,14.71
2022-10-18T20:38:57.793Z,14.76
2022-10-18T20:44:21.042Z,14.79
2022-10-18T20:49:42.756Z,14.76
2022-10-18T20:55:04.609Z,14.75
2022-10-18T21:00:26.260Z,14.66
2022-10-18T21:05:48.143Z,14.60
2022-10-18T21:11:11.227Z,14.57
2022-10-18T21:16:35.057Z,14.58
2022-10-18T21:21:57.592Z,14.62
2022-10-18T21:27:19.114Z,14.66
2022-10-18T21:32:41.015Z,14.72
2022-10-18T21:38:03.394Z,14.72
2022-10-18T21:43:25.301Z,14.71
2022-10-18T21:48:50.120Z,14.66
2022-10-18T21:54:14.036Z,14.53
2022-10-18T21:59:35.724Z,14.44
2022-10-18T22:04:57.437Z,14.40
2022-10-18T22:10:19.270Z,14.44
2022-10-18T22:15:40.968Z,14.46
2022-10-18T22:21:06.546Z,14.49
2022-10-18T22:26:30.820Z,14.49
2022-10-18T22:31:54.408Z,14.46
2022-10-18T22:37:16.038Z,14.49
2022-10-18T22:42:37.902Z,14.48
2022-10-18T22:47:59.558Z,14.49
2022-10-18T22:53:23.804Z,14.53
2022-10-18T22:58:46.125Z,14.55
2022-10-18T23:04:07.720Z,14.58
2022-10-18T23:09:29.350Z,14.59
2022-10-18T23:14:50.972Z,14.56
2022-10-18T23:20:12.698Z,14.57
2022-10-18T23:25:38.045Z,14.61
2022-10-18T23:30:59.724Z,14.63
2022-10-18T23:36:22.366Z,14.58
2022-10-18T23:41:43.880Z,14.54
2022-10-18T23:47:05.237Z,14.49
2022-10-18T23:52:27.063Z,14.42
2022-10-18T23:57:48.696Z,14.43
